EZY96BR LFML-EGKK
Flight info
| Callsign | EZY96BR |
|---|---|
| Flight time | N/A |
| Altitude | 38000 |
| Route | ETREK DCT MADOT DCT MOPEM DCT CACHI DCT AVLON DCT OKRIX DCT BRY DCT CLM DCT KOPOR DCT KESAX DCT KUNAV |
| Aircraft | A319/M-SDE2E3FGIJ1RWXYZ/LB1 |
Departure
| Time | N/A |
|---|---|
| Airport | Marseille Provence Airport (LFML) |
Arrival
| Time | 2026-05-03 20:56 |
|---|---|
| Airport | London Gatwick Airport (EGKK) |
| Time | Latitude | Longitude | Altitude | Speed | Heading |
|---|---|---|---|---|---|
| 2026-05-03 20:15 | 47.74873 | 3.69981 | 38012 ft | 480 kts | 333° |
| 2026-05-03 20:15 | 47.82061 | 3.65613 | 38009 ft | 480 kts | 333° |
| 2026-05-03 20:16 | 47.88247 | 3.61847 | 38009 ft | 480 kts | 333° |
| 2026-05-03 20:16 | 47.93429 | 3.58700 | 38007 ft | 480 kts | 333° |
| 2026-05-03 20:17 | 47.99604 | 3.54935 | 38015 ft | 480 kts | 333° |
| 2026-05-03 20:17 | 48.05730 | 3.51168 | 38009 ft | 479 kts | 333° |
| 2026-05-03 20:18 | 48.11855 | 3.47376 | 38009 ft | 479 kts | 333° |
| 2026-05-03 20:18 | 48.18010 | 3.43569 | 38014 ft | 479 kts | 333° |
| 2026-05-03 20:19 | 48.24146 | 3.39772 | 37998 ft | 478 kts | 333° |
| 2026-05-03 20:19 | 48.30288 | 3.35967 | 37997 ft | 478 kts | 333° |
| 2026-05-03 20:20 | 48.36442 | 3.32146 | 37999 ft | 478 kts | 333° |
| 2026-05-03 20:20 | 48.42588 | 3.28302 | 38008 ft | 478 kts | 333° |
| 2026-05-03 20:21 | 48.48695 | 3.24415 | 38005 ft | 479 kts | 332° |
| 2026-05-03 20:21 | 48.54824 | 3.20475 | 37997 ft | 479 kts | 332° |
| 2026-05-03 20:22 | 48.60955 | 3.16542 | 38000 ft | 479 kts | 333° |
| 2026-05-03 20:22 | 48.67060 | 3.12631 | 37991 ft | 479 kts | 333° |
| 2026-05-03 20:23 | 48.73122 | 3.08725 | 37981 ft | 479 kts | 332° |
| 2026-05-03 20:23 | 48.79288 | 3.04734 | 37996 ft | 479 kts | 332° |
| 2026-05-03 20:24 | 48.85356 | 3.00606 | 37988 ft | 475 kts | 326° |
| 2026-05-03 20:24 | 48.91092 | 2.95596 | 37976 ft | 474 kts | 325° |
| 2026-05-03 20:25 | 48.96815 | 2.90601 | 37971 ft | 474 kts | 325° |
| 2026-05-03 20:25 | 49.02500 | 2.85621 | 37972 ft | 474 kts | 325° |
| 2026-05-03 20:26 | 49.08213 | 2.80603 | 37979 ft | 474 kts | 325° |
| 2026-05-03 20:26 | 49.13912 | 2.75564 | 37971 ft | 474 kts | 325° |
| 2026-05-03 20:27 | 49.19587 | 2.70530 | 37963 ft | 474 kts | 325° |
| 2026-05-03 20:27 | 49.25289 | 2.65486 | 37978 ft | 474 kts | 325° |
| 2026-05-03 20:28 | 49.31004 | 2.60422 | 37968 ft | 475 kts | 325° |
| 2026-05-03 20:28 | 49.36704 | 2.55332 | 37961 ft | 475 kts | 325° |
| 2026-05-03 20:29 | 49.42421 | 2.50216 | 37961 ft | 476 kts | 325° |
| 2026-05-03 20:29 | 49.48140 | 2.45091 | 37960 ft | 476 kts | 325° |
| 2026-05-03 20:30 | 49.53543 | 2.39349 | 37966 ft | 469 kts | 315° |
| 2026-05-03 20:30 | 49.58484 | 2.32777 | 37960 ft | 470 kts | 315° |
| 2026-05-03 20:31 | 49.63447 | 2.26194 | 37963 ft | 470 kts | 315° |
| 2026-05-03 20:31 | 49.68405 | 2.19607 | 37967 ft | 471 kts | 315° |
| 2026-05-03 20:31 | 49.70891 | 2.16290 | 37624 ft | 472 kts | 315° |
| 2026-05-03 20:32 | 49.73373 | 2.12969 | 37357 ft | 472 kts | 314° |
| 2026-05-03 20:32 | 49.75855 | 2.09643 | 36821 ft | 472 kts | 314° |
| 2026-05-03 20:32 | 49.78332 | 2.06322 | 36279 ft | 472 kts | 314° |
| 2026-05-03 20:32 | 49.80816 | 2.02988 | 35736 ft | 472 kts | 313° |
| 2026-05-03 20:33 | 49.83294 | 1.99654 | 35188 ft | 472 kts | 313° |
| 2026-05-03 20:33 | 49.85773 | 1.96314 | 34636 ft | 473 kts | 312° |
| 2026-05-03 20:33 | 49.88254 | 1.92965 | 34066 ft | 473 kts | 311° |
| 2026-05-03 20:33 | 49.90737 | 1.89608 | 33450 ft | 474 kts | 311° |
| 2026-05-03 20:34 | 49.93226 | 1.86237 | 32903 ft | 475 kts | 311° |
| 2026-05-03 20:34 | 49.95717 | 1.82861 | 32350 ft | 477 kts | 311° |
| 2026-05-03 20:34 | 49.98226 | 1.79459 | 31772 ft | 479 kts | 312° |
| 2026-05-03 20:34 | 50.00737 | 1.76052 | 31218 ft | 481 kts | 312° |
| 2026-05-03 20:35 | 50.03260 | 1.72626 | 30662 ft | 482 kts | 313° |
| 2026-05-03 20:35 | 50.05753 | 1.69230 | 30120 ft | 483 kts | 313° |
| 2026-05-03 20:35 | 50.08281 | 1.65778 | 29533 ft | 484 kts | 313° |
| 2026-05-03 20:35 | 50.10815 | 1.62323 | 29034 ft | 485 kts | 313° |
| 2026-05-03 20:36 | 50.13362 | 1.58860 | 28519 ft | 485 kts | 313° |
| 2026-05-03 20:36 | 50.15904 | 1.55415 | 28168 ft | 469 kts | 313° |
| 2026-05-03 20:36 | 50.18307 | 1.52175 | 28032 ft | 450 kts | 313° |
| 2026-05-03 20:36 | 50.20549 | 1.49151 | 27896 ft | 429 kts | 313° |
| 2026-05-03 20:37 | 50.22771 | 1.46142 | 27423 ft | 417 kts | 313° |
| 2026-05-03 20:37 | 50.24937 | 1.43189 | 26799 ft | 411 kts | 313° |
| 2026-05-03 20:37 | 50.27070 | 1.40265 | 26159 ft | 405 kts | 313° |
| 2026-05-03 20:37 | 50.29178 | 1.37370 | 25557 ft | 401 kts | 313° |
| 2026-05-03 20:38 | 50.31262 | 1.34501 | 24953 ft | 397 kts | 313° |
| 2026-05-03 20:38 | 50.33319 | 1.31664 | 24379 ft | 393 kts | 313° |
| 2026-05-03 20:38 | 50.35357 | 1.28852 | 23821 ft | 388 kts | 313° |
| 2026-05-03 20:38 | 50.37372 | 1.26072 | 23208 ft | 384 kts | 313° |
| 2026-05-03 20:39 | 50.39358 | 1.23335 | 22726 ft | 376 kts | 314° |
| 2026-05-03 20:39 | 50.41299 | 1.20663 | 22281 ft | 367 kts | 313° |
| 2026-05-03 20:39 | 50.43191 | 1.18054 | 21837 ft | 358 kts | 314° |
| 2026-05-03 20:39 | 50.45041 | 1.15500 | 21401 ft | 351 kts | 314° |
| 2026-05-03 20:40 | 50.46854 | 1.12993 | 20996 ft | 345 kts | 314° |
| 2026-05-03 20:40 | 50.48651 | 1.10509 | 20580 ft | 343 kts | 314° |
| 2026-05-03 20:40 | 50.50438 | 1.08036 | 20172 ft | 341 kts | 314° |
| 2026-05-03 20:40 | 50.52148 | 1.05491 | 19761 ft | 336 kts | 308° |
| 2026-05-03 20:41 | 50.53737 | 1.02811 | 19361 ft | 335 kts | 308° |
| 2026-05-03 20:41 | 50.55322 | 1.00142 | 18965 ft | 333 kts | 308° |
| 2026-05-03 20:41 | 50.56899 | 0.97481 | 18570 ft | 332 kts | 308° |
| 2026-05-03 20:41 | 50.58462 | 0.94842 | 18167 ft | 331 kts | 309° |
| 2026-05-03 20:42 | 50.60027 | 0.92199 | 17761 ft | 329 kts | 309° |
| 2026-05-03 20:42 | 50.61589 | 0.89566 | 17366 ft | 327 kts | 309° |
| 2026-05-03 20:42 | 50.63134 | 0.86955 | 16977 ft | 325 kts | 309° |
| 2026-05-03 20:42 | 50.64668 | 0.84353 | 16606 ft | 323 kts | 309° |
| 2026-05-03 20:43 | 50.66174 | 0.81801 | 16237 ft | 321 kts | 310° |
| 2026-05-03 20:43 | 50.67685 | 0.79225 | 15868 ft | 319 kts | 309° |
| 2026-05-03 20:43 | 50.69131 | 0.76571 | 15339 ft | 322 kts | 307° |
| 2026-05-03 20:43 | 50.70553 | 0.73790 | 14814 ft | 325 kts | 306° |
| 2026-05-03 20:44 | 50.71955 | 0.70975 | 14295 ft | 329 kts | 305° |
| 2026-05-03 20:44 | 50.73369 | 0.68127 | 13768 ft | 332 kts | 306° |
| 2026-05-03 20:44 | 50.74803 | 0.65263 | 13276 ft | 331 kts | 306° |
| 2026-05-03 20:44 | 50.76215 | 0.62466 | 12777 ft | 331 kts | 306° |
| 2026-05-03 20:45 | 50.77644 | 0.59643 | 12418 ft | 326 kts | 306° |
| 2026-05-03 20:45 | 50.79052 | 0.56864 | 11966 ft | 322 kts | 306° |
| 2026-05-03 20:45 | 50.80449 | 0.54110 | 11397 ft | 320 kts | 307° |
| 2026-05-03 20:45 | 50.81831 | 0.51384 | 10850 ft | 316 kts | 307° |
| 2026-05-03 20:46 | 50.83194 | 0.48698 | 10500 ft | 305 kts | 307° |
| 2026-05-03 20:46 | 50.84497 | 0.46138 | 10073 ft | 295 kts | 307° |
| 2026-05-03 20:46 | 50.85773 | 0.43627 | 9495 ft | 291 kts | 307° |
| 2026-05-03 20:46 | 50.87032 | 0.41139 | 8857 ft | 288 kts | 307° |
| 2026-05-03 20:47 | 50.88273 | 0.38678 | 8217 ft | 285 kts | 307° |
| 2026-05-03 20:47 | 50.89488 | 0.36269 | 7862 ft | 273 kts | 307° |
| 2026-05-03 20:47 | 50.90650 | 0.33964 | 7513 ft | 265 kts | 307° |
| 2026-05-03 20:47 | 50.91787 | 0.31706 | 7284 ft | 257 kts | 307° |
| 2026-05-03 20:48 | 50.92883 | 0.29529 | 7098 ft | 249 kts | 307° |
| 2026-05-03 20:48 | 50.93951 | 0.27405 | 6937 ft | 244 kts | 307° |
| 2026-05-03 20:48 | 50.95139 | 0.25493 | 6997 ft | 248 kts | 320° |
| 2026-05-03 20:48 | 50.96532 | 0.23844 | 6589 ft | 249 kts | 322° |
| 2026-05-03 20:49 | 50.97925 | 0.22235 | 6171 ft | 247 kts | 322° |
| 2026-05-03 20:49 | 50.99305 | 0.20651 | 5773 ft | 243 kts | 323° |
| 2026-05-03 20:49 | 51.00669 | 0.19081 | 5402 ft | 241 kts | 323° |
| 2026-05-03 20:49 | 51.02017 | 0.17527 | 5040 ft | 239 kts | 322° |
| 2026-05-03 20:50 | 51.03333 | 0.15999 | 4685 ft | 238 kts | 322° |
| 2026-05-03 20:50 | 51.04668 | 0.14446 | 4312 ft | 238 kts | 322° |
| 2026-05-03 20:50 | 51.06004 | 0.12889 | 3936 ft | 237 kts | 323° |
| 2026-05-03 20:50 | 51.07334 | 0.11341 | 3575 ft | 237 kts | 322° |
| 2026-05-03 20:51 | 51.08657 | 0.09798 | 3223 ft | 236 kts | 322° |
| 2026-05-03 20:51 | 51.09970 | 0.08263 | 2980 ft | 230 kts | 322° |
| 2026-05-03 20:51 | 51.11229 | 0.06789 | 2843 ft | 220 kts | 322° |
| 2026-05-03 20:51 | 51.12459 | 0.05350 | 2549 ft | 219 kts | 322° |
| 2026-05-03 20:52 | 51.13666 | 0.03938 | 2383 ft | 211 kts | 322° |
| 2026-05-03 20:52 | 51.14821 | 0.02590 | 2269 ft | 202 kts | 322° |
| 2026-05-03 20:52 | 51.15914 | 0.01313 | 2189 ft | 188 kts | 322° |
| 2026-05-03 20:52 | 51.16760 | -0.00133 | 2104 ft | 173 kts | 298° |
| 2026-05-03 20:53 | 51.17072 | -0.01911 | 2017 ft | 165 kts | 271° |
| 2026-05-03 20:53 | 51.16909 | -0.03695 | 1886 ft | 163 kts | 257° |
| 2026-05-03 20:53 | 51.16671 | -0.05448 | 1706 ft | 160 kts | 257° |
| 2026-05-03 20:53 | 51.16441 | -0.07139 | 1500 ft | 152 kts | 257° |
| 2026-05-03 20:54 | 51.16224 | -0.08731 | 1306 ft | 140 kts | 257° |
| 2026-05-03 20:54 | 51.15834 | -0.11588 | 941 ft | 128 kts | 257° |
| 2026-05-03 20:54 | 51.15645 | -0.12964 | 777 ft | 127 kts | 256° |
| 2026-05-03 20:55 | 51.15457 | -0.14340 | 623 ft | 126 kts | 257° |
| 2026-05-03 20:55 | 51.15270 | -0.15703 | 450 ft | 125 kts | 257° |
| 2026-05-03 20:55 | 51.15087 | -0.17063 | 285 ft | 125 kts | 257° |
| 2026-05-03 20:55 | 51.14912 | -0.18336 | 210 ft | 102 kts | 257° |
| 2026-05-03 20:56 | 51.14798 | -0.19161 | 217 ft | 53 kts | 257° |
| 2026-05-03 20:56 | 51.14757 | -0.19467 | 209 ft | 3 kts | 265° |
| 2026-05-03 20:56 | 51.14757 | -0.19570 | 210 ft | 22 kts | 271° |
| 2026-05-03 20:56 | 51.14786 | -0.19829 | 209 ft | 26 kts | 281° |
| 2026-05-03 20:57 | 51.14839 | -0.20050 | 205 ft | 13 kts | 344° |
| 2026-05-03 20:57 | 51.14864 | -0.20014 | 207 ft | 6 kts | 83° |
| 2026-05-03 20:57 | 51.14874 | -0.19927 | 208 ft | 10 kts | 79° |
| 2026-05-03 20:57 | 51.14888 | -0.19817 | 212 ft | 12 kts | 78° |
| 2026-05-03 20:58 | 51.14906 | -0.19690 | 212 ft | 12 kts | 76° |
| 2026-05-03 20:58 | 51.14926 | -0.19554 | 207 ft | 13 kts | 77° |
| 2026-05-03 20:58 | 51.14945 | -0.19417 | 213 ft | 14 kts | 78° |
| 2026-05-03 20:58 | 51.14964 | -0.19274 | 208 ft | 14 kts | 78° |
| 2026-05-03 20:59 | 51.14989 | -0.19100 | 207 ft | 19 kts | 77° |
| 2026-05-03 20:59 | 51.15020 | -0.18871 | 212 ft | 23 kts | 77° |
| 2026-05-03 20:59 | 51.15055 | -0.18617 | 205 ft | 21 kts | 77° |
| 2026-05-03 20:59 | 51.15086 | -0.18392 | 203 ft | 15 kts | 77° |
| 2026-05-03 21:00 | 51.15103 | -0.18274 | 207 ft | 4 kts | 77° |
| 2026-05-03 21:00 | 51.15106 | -0.18256 | 209 ft | 5 kts | 77° |
| 2026-05-03 21:00 | 51.15113 | -0.18216 | 205 ft | 1 kts | 60° |
| 2026-05-03 21:00 | 51.15131 | -0.18194 | 209 ft | 5 kts | 36° |
| 2026-05-03 21:01 | 51.15162 | -0.18203 | 205 ft | 6 kts | 352° |
| 2026-05-03 21:01 | 51.15219 | -0.18221 | 205 ft | 11 kts | 347° |
| 2026-05-03 21:01 | 51.15306 | -0.18251 | 205 ft | 15 kts | 347° |
| 2026-05-03 21:01 | 51.15417 | -0.18272 | 214 ft | 17 kts | 25° |
| 2026-05-03 21:02 | 51.15449 | -0.18159 | 213 ft | 18 kts | 72° |
| 2026-05-03 21:02 | 51.15478 | -0.17952 | 213 ft | 20 kts | 77° |
| 2026-05-03 21:02 | 51.15508 | -0.17755 | 210 ft | 11 kts | 57° |
| 2026-05-03 21:02 | 51.15575 | -0.17761 | 205 ft | 0 kts | 347° |